Time;durP1;ratioP1;P1;durP2;ratioP2;P2;SDS_P1;SDS_P2;PMS_P1;PMS_P2;Temp;Humidity;BMP_temperature;BMP_pressure;BME280_temperature;BME280_humidity;BME280_pressure;Samples;Min_cycle;Max_cycle;Signal;HPM_P1;HPM_P2
2022/08/12 00:45:25;;;;;;;1.00;1.00;;;;;;;;;;5103009;28;20774;-62
2022/08/12 00:48:12;;;;;;;1.30;1.30;;;;;;;;;;5101641;28;20208;-62
2022/08/12 00:51:01;;;;;;;1.27;1.20;;;;;;;;;;5097493;28;20708;-63
2022/08/12 00:53:48;;;;;;;1.43;1.33;;;;;;;;;;5100610;28;20561;-62
2022/08/12 00:56:37;;;;;;;1.40;1.30;;;;;;;;;;5103525;28;20208;-62
2022/08/12 00:59:25;;;;;;;1.50;1.07;;;;;;;;;;5096871;28;20216;-62
2022/08/12 01:02:21;;;;;;;1.00;1.00;;;;;;;;;;5093187;28;20204;-63
2022/08/12 01:11:31;;;;;;;1.10;1.10;;;;;;;;;;5092553;28;20208;-62
2022/08/12 01:14:19;;;;;;;0.90;0.90;;;;;;;;;;5099751;28;20222;-62
2022/08/12 01:17:08;;;;;;;1.03;1.03;;;;;;;;;;5100310;28;20212;-62
2022/08/12 01:19:57;;;;;;;1.37;1.27;;;;;;;;;;5095960;28;20198;-63
2022/08/12 01:22:54;;;;;;;1.83;1.10;;;;;;;;;;5101375;28;20212;-62
2022/08/12 01:25:45;;;;;;;0.90;0.90;;;;;;;;;;5098170;28;20641;-62
2022/08/12 01:28:34;;;;;;;1.10;1.10;;;;;;;;;;5100106;28;20206;-62
2022/08/12 01:31:22;;;;;;;1.47;1.00;;;;;;;;;;5105219;28;20211;-63
2022/08/12 01:34:11;;;;;;;1.10;1.10;;;;;;;;;;5107431;28;20249;-62
2022/08/12 01:37:00;;;;;;;1.00;1.00;;;;;;;;;;5100046;28;20233;-63
2022/08/12 01:39:51;;;;;;;1.13;1.10;;;;;;;;;;5096627;28;20636;-62
2022/08/12 01:42:46;;;;;;;1.10;1.10;;;;;;;;;;5104565;28;20294;-62
2022/08/12 01:45:35;;;;;;;1.13;1.13;;;;;;;;;;5100044;28;20574;-62
2022/08/12 01:48:29;;;;;;;1.00;1.00;;;;;;;;;;5098479;28;20211;-62
2022/08/12 01:51:27;;;;;;;0.93;0.93;;;;;;;;;;5099064;28;20242;-62
2022/08/12 01:54:15;;;;;;;0.93;0.93;;;;;;;;;;5098712;28;20240;-62
2022/08/12 01:57:10;;;;;;;1.00;1.00;;;;;;;;;;5101203;28;20210;-62
2022/08/12 02:00:03;;;;;;;1.00;1.00;;;;;;;;;;5097676;28;20208;-62
2022/08/12 02:03:03;;;;;;;1.00;1.00;;;;;;;;;;5100381;28;20204;-63
2022/08/12 02:12:19;;;;;;;1.00;1.00;;;;;;;;;;5114531;27;20207;-62
2022/08/12 02:15:20;;;;;;;0.90;0.90;;;;;;;;;;5099127;28;20256;-62
2022/08/12 02:18:19;;;;;;;1.07;1.07;;;;;;;;;;5101282;28;20207;-62
2022/08/12 02:21:18;;;;;;;1.00;1.00;;;;;;;;;;5105936;28;20495;-62
2022/08/12 02:24:07;;;;;;;0.80;0.80;;;;;;;;;;5094169;28;20221;-62
2022/08/12 02:26:57;;;;;;;0.83;0.83;;;;;;;;;;5105783;27;20659;-62
2022/08/12 02:29:46;;;;;;;1.00;1.00;;;;;;;;;;5100385;28;20656;-62
2022/08/12 02:32:38;;;;;;;1.47;0.93;;;;;;;;;;5095153;28;20224;-62
2022/08/12 02:35:27;;;;;;;1.10;0.90;;;;;;;;;;5099867;28;20282;-62
2022/08/12 02:38:16;;;;;;;0.70;0.70;;;;;;;;;;5102328;28;20215;-62
2022/08/12 02:41:05;;;;;;;1.00;0.90;;;;;;;;;;5100524;28;20626;-62
2022/08/12 02:43:59;;;;;;;0.90;0.90;;;;;;;;;;5103726;27;20201;-62
2022/08/12 02:46:48;;;;;;;1.10;1.10;;;;;;;;;;5103474;28;20583;-62
2022/08/12 02:49:44;;;;;;;0.90;0.90;;;;;;;;;;5094869;28;20204;-63
2022/08/12 02:52:32;;;;;;;0.90;0.90;;;;;;;;;;5100115;28;20605;-62
2022/08/12 02:55:23;;;;;;;0.80;0.80;;;;;;;;;;5102616;28;20292;-62
2022/08/12 02:58:11;;;;;;;0.60;0.60;;;;;;;;;;5101631;28;20194;-62
2022/08/12 03:01:00;;;;;;;0.77;0.77;;;;;;;;;;5104578;28;20262;-62
2022/08/12 03:03:51;;;;;;;0.80;0.80;;;;;;;;;;5100611;28;20206;-63
2022/08/12 03:06:44;;;;;;;0.70;0.70;;;;;;;;;;5103073;28;20231;-62
2022/08/12 03:09:36;;;;;;;0.83;0.83;;;;;;;;;;5103964;28;20235;-62
2022/08/12 03:12:24;;;;;;;0.80;0.80;;;;;;;;;;5092999;28;20208;-62
2022/08/12 03:15:16;;;;;;;0.97;0.97;;;;;;;;;;5101883;28;20199;-62
2022/08/12 03:18:08;;;;;;;0.90;0.80;;;;;;;;;;5101261;28;20235;-62
2022/08/12 03:20:57;;;;;;;1.10;1.00;;;;;;;;;;5103203;28;20239;-62
2022/08/12 03:23:46;;;;;;;1.60;0.93;;;;;;;;;;5098163;28;20206;-62
2022/08/12 03:26:35;;;;;;;0.70;0.70;;;;;;;;;;5099369;28;20249;-63
2022/08/12 03:29:27;;;;;;;0.93;0.93;;;;;;;;;;5103124;28;20559;-62
2022/08/12 03:32:15;;;;;;;0.80;0.80;;;;;;;;;;5096010;28;20202;-62
2022/08/12 03:35:06;;;;;;;0.80;0.80;;;;;;;;;;5098421;28;20336;-62
2022/08/12 03:37:56;;;;;;;0.80;0.80;;;;;;;;;;5107112;28;20247;-62
2022/08/12 04:02:55;;;;;;;0.63;0.63;;;;;;;;;;5099795;28;20214;-62
2022/08/12 04:05:42;;;;;;;0.90;0.90;;;;;;;;;;5099344;28;20222;-62
2022/08/12 04:08:30;;;;;;;0.80;0.80;;;;;;;;;;5100476;28;20211;-62
2022/08/12 04:14:25;;;;;;;0.70;0.70;;;;;;;;;;5096565;28;20259;-62
2022/08/12 04:17:13;;;;;;;1.03;0.83;;;;;;;;;;5096419;27;20203;-62
2022/08/12 04:20:00;;;;;;;0.97;0.97;;;;;;;;;;5095517;28;20206;-62
2022/08/12 04:22:47;;;;;;;0.70;0.70;;;;;;;;;;5095535;28;20574;-63
2022/08/12 04:25:38;;;;;;;0.80;0.80;;;;;;;;;;5099106;28;20208;-62
2022/08/12 04:28:26;;;;;;;0.70;0.70;;;;;;;;;;5101705;28;20233;-62
2022/08/12 04:31:14;;;;;;;0.90;0.90;;;;;;;;;;5093522;28;20290;-62
2022/08/12 04:34:02;;;;;;;0.73;0.73;;;;;;;;;;5099187;28;20800;-62
2022/08/12 04:36:49;;;;;;;0.80;0.80;;;;;;;;;;5103428;28;20203;-63
2022/08/12 04:39:38;;;;;;;0.80;0.80;;;;;;;;;;5100570;28;20214;-62
2022/08/12 04:42:25;;;;;;;0.70;0.70;;;;;;;;;;5097844;28;20202;-62
2022/08/12 04:45:12;;;;;;;0.70;0.70;;;;;;;;;;5097592;28;20249;-62
2022/08/12 04:48:01;;;;;;;0.80;0.80;;;;;;;;;;5096974;28;20212;-62
2022/08/12 04:50:49;;;;;;;0.60;0.60;;;;;;;;;;5096373;28;20218;-62
2022/08/12 04:53:36;;;;;;;0.83;0.83;;;;;;;;;;5093212;28;20932;-62
2022/08/12 04:56:23;;;;;;;0.60;0.60;;;;;;;;;;5096398;28;20214;-62
2022/08/12 04:59:10;;;;;;;0.47;0.47;;;;;;;;;;5094450;28;20247;-62
2022/08/12 05:01:57;;;;;;;0.70;0.70;;;;;;;;;;5098036;28;20196;-62
2022/08/12 05:04:47;;;;;;;0.60;0.60;;;;;;;;;;5095209;28;20211;-63
2022/08/12 05:07:34;;;;;;;0.50;0.50;;;;;;;;;;5095878;28;20584;-62
2022/08/12 05:10:22;;;;;;;1.37;0.73;;;;;;;;;;5095734;28;20235;-62
2022/08/12 05:13:13;;;;;;;0.50;0.50;;;;;;;;;;5102975;28;20208;-63
2022/08/12 05:16:00;;;;;;;0.77;0.60;;;;;;;;;;5098864;28;20273;-62
2022/08/12 05:18:48;;;;;;;0.70;0.70;;;;;;;;;;5100892;28;20289;-62
2022/08/12 05:21:37;;;;;;;0.60;0.60;;;;;;;;;;5100310;28;20200;-62
2022/08/12 05:24:24;;;;;;;0.70;0.70;;;;;;;;;;5100950;28;20207;-62
2022/08/12 05:27:11;;;;;;;0.60;0.60;;;;;;;;;;5098359;28;20215;-63
2022/08/12 05:29:58;;;;;;;1.40;0.60;;;;;;;;;;5099263;28;20260;-62
2022/08/12 05:32:45;;;;;;;0.50;0.50;;;;;;;;;;5094466;28;20366;-62
2022/08/12 05:35:38;;;;;;;0.53;0.53;;;;;;;;;;5099018;28;20205;-62
2022/08/12 05:41:35;;;;;;;0.73;0.73;;;;;;;;;;5096987;28;20243;-62
2022/08/12 05:44:22;;;;;;;0.70;0.70;;;;;;;;;;5099924;28;20285;-62
2022/08/12 05:47:11;;;;;;;0.70;0.70;;;;;;;;;;5096813;28;20202;-62
2022/08/12 05:49:58;;;;;;;0.87;0.87;;;;;;;;;;5094771;28;20213;-62
2022/08/12 05:52:45;;;;;;;0.80;0.80;;;;;;;;;;5094961;28;20208;-62
2022/08/12 05:55:34;;;;;;;0.80;0.80;;;;;;;;;;5099765;28;20206;-62
2022/08/12 05:58:21;;;;;;;0.70;0.70;;;;;;;;;;5099732;28;20204;-62
2022/08/12 06:01:08;;;;;;;0.80;0.80;;;;;;;;;;5098330;28;20222;-62
2022/08/12 06:03:55;;;;;;;0.80;0.80;;;;;;;;;;5102910;28;20258;-62
2022/08/12 06:06:42;;;;;;;0.80;0.80;;;;;;;;;;5098790;28;20271;-62
2022/08/12 06:09:30;;;;;;;0.70;0.70;;;;;;;;;;5102678;28;20238;-62
2022/08/12 06:12:22;;;;;;;0.80;0.80;;;;;;;;;;5100255;28;20571;-62
2022/08/12 06:15:10;;;;;;;1.05;0.80;;;;;;;;;;5104419;28;20232;-63
2022/08/12 06:18:04;;;;;;;0.80;0.80;;;;;;;;;;5098614;27;20271;-62
2022/08/12 06:20:52;;;;;;;0.82;0.75;;;;;;;;;;5094376;28;20572;-62
2022/08/12 06:23:40;;;;;;;0.73;0.73;;;;;;;;;;5102794;28;20203;-62
2022/08/12 06:26:27;;;;;;;0.90;0.90;;;;;;;;;;5103789;28;20618;-62
2022/08/12 06:29:18;;;;;;;0.70;0.70;;;;;;;;;;5101322;28;20213;-62
2022/08/12 06:32:06;;;;;;;0.90;0.90;;;;;;;;;;5105723;28;20201;-62
2022/08/12 06:34:55;;;;;;;0.80;0.80;;;;;;;;;;5103618;28;20244;-62
2022/08/12 06:37:43;;;;;;;0.73;0.73;;;;;;;;;;5096190;28;20209;-62
2022/08/12 06:43:34;;;;;;;1.02;1.02;;;;;;;;;;5097317;28;20526;-62
2022/08/12 06:46:23;;;;;;;0.80;0.77;;;;;;;;;;5098277;28;20213;-63
2022/08/12 06:49:12;;;;;;;0.63;0.63;;;;;;;;;;5098046;28;20662;-62
2022/08/12 06:51:59;;;;;;;0.70;0.70;;;;;;;;;;5103666;28;20704;-63
2022/08/12 06:54:45;;;;;;;0.85;0.85;;;;;;;;;;5095540;28;20241;-62
2022/08/12 06:57:33;;;;;;;0.80;0.80;;;;;;;;;;5096179;28;20284;-62
2022/08/12 07:00:22;;;;;;;0.85;0.85;;;;;;;;;;5101030;28;20242;-63
2022/08/12 07:03:19;;;;;;;0.85;0.85;;;;;;;;;;5098188;28;20198;-62
2022/08/12 07:06:12;;;;;;;0.82;0.80;;;;;;;;;;5098786;28;20221;-63
2022/08/12 07:08:59;;;;;;;0.90;0.90;;;;;;;;;;5093745;28;20234;-63
2022/08/12 07:11:46;;;;;;;0.70;0.70;;;;;;;;;;5098308;28;20197;-61
2022/08/12 07:14:33;;;;;;;0.80;0.80;;;;;;;;;;5097577;28;20694;-61
2022/08/12 07:17:20;;;;;;;0.70;0.70;;;;;;;;;;5102221;27;20277;-61
2022/08/12 07:20:11;;;;;;;0.80;0.80;;;;;;;;;;5105330;28;20489;-61
2022/08/12 07:22:58;;;;;;;0.70;0.70;;;;;;;;;;5100265;28;20568;-61
2022/08/12 07:25:45;;;;;;;0.65;0.65;;;;;;;;;;5091606;28;20619;-61
2022/08/12 07:28:35;;;;;;;0.57;0.57;;;;;;;;;;5101909;28;20198;-61
2022/08/12 07:31:22;;;;;;;0.82;0.82;;;;;;;;;;5097747;28;20210;-61
2022/08/12 07:34:09;;;;;;;0.75;0.75;;;;;;;;;;5100878;28;20688;-61
2022/08/12 07:36:59;;;;;;;0.70;0.70;;;;;;;;;;5101211;28;20204;-62
2022/08/12 07:39:46;;;;;;;0.85;0.85;;;;;;;;;;5102623;28;20205;-62
2022/08/12 07:42:33;;;;;;;0.55;0.55;;;;;;;;;;5097478;28;20662;-62
2022/08/12 07:45:20;;;;;;;0.80;0.80;;;;;;;;;;5100677;28;20198;-61
2022/08/12 07:48:07;;;;;;;0.65;0.65;;;;;;;;;;5095098;28;20202;-62
2022/08/12 07:50:54;;;;;;;0.60;0.60;;;;;;;;;;5101564;28;20206;-62
2022/08/12 07:53:42;;;;;;;0.50;0.50;;;;;;;;;;5097932;28;20211;-62
2022/08/12 07:56:30;;;;;;;0.85;0.85;;;;;;;;;;5098952;28;20209;-62
2022/08/12 07:59:18;;;;;;;0.63;0.63;;;;;;;;;;5099500;28;20201;-62
2022/08/12 08:02:08;;;;;;;0.90;0.90;;;;;;;;;;5094608;28;20216;-62
2022/08/12 08:04:59;;;;;;;0.93;0.93;;;;;;;;;;5092626;28;20198;-61
2022/08/12 08:07:46;;;;;;;0.70;0.70;;;;;;;;;;5101300;28;20262;-62
2022/08/12 08:10:34;;;;;;;0.75;0.75;;;;;;;;;;5098389;28;21067;-62
2022/08/12 08:13:20;;;;;;;0.70;0.70;;;;;;;;;;5096348;28;20851;-62
2022/08/12 08:16:07;;;;;;;0.80;0.80;;;;;;;;;;5098328;28;20237;-62
2022/08/12 08:18:58;;;;;;;0.57;0.57;;;;;;;;;;5104374;28;20245;-62
2022/08/12 08:21:45;;;;;;;0.50;0.50;;;;;;;;;;5098238;28;20244;-62
2022/08/12 08:24:32;;;;;;;0.63;0.63;;;;;;;;;;5097452;28;20275;-62
2022/08/12 08:27:21;;;;;;;0.52;0.52;;;;;;;;;;5100857;28;20206;-62
2022/08/12 08:30:10;;;;;;;0.70;0.70;;;;;;;;;;5096078;28;20796;-62
2022/08/12 08:32:57;;;;;;;0.50;0.50;;;;;;;;;;5097615;28;20206;-62
2022/08/12 08:35:47;;;;;;;0.75;0.70;;;;;;;;;;5091758;28;20237;-62
2022/08/12 08:38:34;;;;;;;0.70;0.70;;;;;;;;;;5100661;28;20279;-59
2022/08/12 08:44:23;;;;;;;0.63;0.63;;;;;;;;;;5069321;28;20203;-61
2022/08/12 08:47:12;;;;;;;1.90;0.90;;;;;;;;;;5103163;28;20225;-62
2022/08/12 08:50:01;;;;;;;0.80;0.80;;;;;;;;;;5098314;28;20704;-61
2022/08/12 08:52:48;;;;;;;0.60;0.60;;;;;;;;;;5094042;28;20291;-61
2022/08/12 08:55:35;;;;;;;0.70;0.70;;;;;;;;;;5099362;28;20225;-62
2022/08/12 08:58:22;;;;;;;0.70;0.70;;;;;;;;;;5093324;28;20775;-61
2022/08/12 09:01:10;;;;;;;0.70;0.70;;;;;;;;;;5098214;28;20207;-61
2022/08/12 09:03:57;;;;;;;0.60;0.60;;;;;;;;;;5102360;28;20689;-61
2022/08/12 09:06:44;;;;;;;0.60;0.60;;;;;;;;;;5101608;28;20304;-61
2022/08/12 09:09:31;;;;;;;0.65;0.65;;;;;;;;;;5101872;28;20589;-61
2022/08/12 09:15:24;;;;;;;0.68;0.68;;;;;;;;;;5097684;28;20230;-61
2022/08/12 09:18:14;;;;;;;0.60;0.60;;;;;;;;;;5106260;28;20211;-61
2022/08/12 09:21:02;;;;;;;0.88;0.88;;;;;;;;;;5092664;28;20232;-61
2022/08/12 09:23:49;;;;;;;0.60;0.60;;;;;;;;;;5098977;28;20203;-61
2022/08/12 09:26:37;;;;;;;0.65;0.65;;;;;;;;;;5102556;28;20232;-61
2022/08/12 09:29:24;;;;;;;1.10;0.65;;;;;;;;;;5096211;28;20202;-60
2022/08/12 09:32:12;;;;;;;0.75;0.75;;;;;;;;;;5097252;28;20205;-63
2022/08/12 09:35:00;;;;;;;0.73;0.73;;;;;;;;;;5102344;28;20221;-63
2022/08/12 09:37:48;;;;;;;0.63;0.63;;;;;;;;;;5096462;28;20745;-61
2022/08/12 09:40:36;;;;;;;0.77;0.77;;;;;;;;;;5094077;28;20289;-62
2022/08/12 09:46:28;;;;;;;0.70;0.70;;;;;;;;;;5095719;28;20206;-61
2022/08/12 09:49:14;;;;;;;0.68;0.68;;;;;;;;;;5100625;28;20198;-61
2022/08/12 09:52:03;;;;;;;0.75;0.75;;;;;;;;;;5098801;28;20209;-61
2022/08/12 09:54:50;;;;;;;0.55;0.55;;;;;;;;;;5104430;28;20257;-62
2022/08/12 09:57:37;;;;;;;0.82;0.80;;;;;;;;;;5098292;28;20658;-61
2022/08/12 10:00:24;;;;;;;0.63;0.63;;;;;;;;;;5099503;28;20296;-61
2022/08/12 10:03:11;;;;;;;0.80;0.80;;;;;;;;;;5095222;28;20213;-61
2022/08/12 10:06:00;;;;;;;1.00;1.00;;;;;;;;;;5098777;28;20268;-61
2022/08/12 10:08:48;;;;;;;0.70;0.70;;;;;;;;;;5094484;28;20233;-62
2022/08/12 10:14:43;;;;;;;0.70;0.70;;;;;;;;;;5107599;28;20589;-62
2022/08/12 10:17:30;;;;;;;0.70;0.70;;;;;;;;;;5105447;27;20216;-61
2022/08/12 10:20:18;;;;;;;0.70;0.70;;;;;;;;;;5099551;28;20209;-61
2022/08/12 10:23:05;;;;;;;0.90;0.90;;;;;;;;;;5102129;28;20298;-61
2022/08/12 10:32:03;;;;;;;0.85;0.85;;;;;;;;;;5100864;28;20214;-62
2022/08/12 10:34:50;;;;;;;0.70;0.70;;;;;;;;;;5104894;28;20328;-62
2022/08/12 10:37:38;;;;;;;0.82;0.82;;;;;;;;;;5101406;28;20202;-62
2022/08/12 10:40:25;;;;;;;0.80;0.80;;;;;;;;;;5107977;28;20924;-61
2022/08/12 10:46:18;;;;;;;0.90;0.90;;;;;;;;;;5104714;28;20202;-62
2022/08/12 10:49:05;;;;;;;0.80;0.80;;;;;;;;;;5106533;28;20449;-61
2022/08/12 10:51:53;;;;;;;0.95;0.95;;;;;;;;;;5102141;28;20202;-62
2022/08/12 10:54:41;;;;;;;2.33;0.85;;;;;;;;;;5106344;28;20206;-61
2022/08/12 10:57:29;;;;;;;0.82;0.80;;;;;;;;;;5101843;28;20560;-61
2022/08/12 11:00:17;;;;;;;0.68;0.68;;;;;;;;;;5097485;28;20198;-62
2022/08/12 11:03:06;;;;;;;0.95;0.95;;;;;;;;;;5103464;28;20198;-62
2022/08/12 11:05:57;;;;;;;1.75;0.90;;;;;;;;;;5101632;28;20416;-61
2022/08/12 11:08:44;;;;;;;0.90;0.90;;;;;;;;;;5102064;28;20213;-62
2022/08/12 11:11:34;;;;;;;1.20;1.10;;;;;;;;;;5105108;28;20213;-61
2022/08/12 11:14:27;;;;;;;0.70;0.70;;;;;;;;;;5098686;28;20284;-61
2022/08/12 11:17:15;;;;;;;1.75;1.00;;;;;;;;;;5104297;27;20234;-61
2022/08/12 11:20:02;;;;;;;0.70;0.70;;;;;;;;;;5097619;28;20206;-61
2022/08/12 11:22:55;;;;;;;0.98;0.90;;;;;;;;;;5098174;28;20671;-61
2022/08/12 11:25:43;;;;;;;0.90;0.90;;;;;;;;;;5099099;28;20205;-61
2022/08/12 11:28:30;;;;;;;0.75;0.75;;;;;;;;;;5103066;28;20238;-62
2022/08/12 11:31:17;;;;;;;1.10;1.05;;;;;;;;;;5105601;28;20841;-62
2022/08/12 11:34:05;;;;;;;0.73;0.73;;;;;;;;;;5106474;28;20562;-62
2022/08/12 11:36:53;;;;;;;1.00;1.00;;;;;;;;;;5103310;28;20557;-62
2022/08/12 11:39:41;;;;;;;2.05;0.98;;;;;;;;;;5103996;28;20206;-62
2022/08/12 11:42:28;;;;;;;1.00;1.00;;;;;;;;;;5099416;28;20217;-62
2022/08/12 11:45:15;;;;;;;0.63;0.63;;;;;;;;;;5095669;28;20203;-62
2022/08/12 11:48:02;;;;;;;0.70;0.68;;;;;;;;;;5091500;28;20236;-62
2022/08/12 11:50:51;;;;;;;1.98;1.00;;;;;;;;;;5096313;28;20235;-62
2022/08/12 11:53:38;;;;;;;0.77;0.77;;;;;;;;;;5094639;28;20224;-62
2022/08/12 11:56:25;;;;;;;1.38;1.27;;;;;;;;;;5094228;28;20214;-62
2022/08/12 11:59:12;;;;;;;0.85;0.85;;;;;;;;;;5095661;28;20209;-61
2022/08/12 12:01:59;;;;;;;0.77;0.77;;;;;;;;;;5095761;28;20241;-61
2022/08/12 12:04:46;;;;;;;0.75;0.75;;;;;;;;;;5099892;28;20729;-62
2022/08/12 12:07:38;;;;;;;0.80;0.80;;;;;;;;;;5102966;28;20661;-62
2022/08/12 12:10:25;;;;;;;1.10;1.10;;;;;;;;;;5098430;28;20238;-62
2022/08/12 12:13:12;;;;;;;0.98;0.98;;;;;;;;;;5103947;28;20224;-62
2022/08/12 12:15:59;;;;;;;0.82;0.82;;;;;;;;;;5099244;28;20229;-61
2022/08/12 12:18:46;;;;;;;1.00;0.90;;;;;;;;;;5096672;28;20214;-61
2022/08/12 12:21:33;;;;;;;0.95;0.88;;;;;;;;;;5099343;28;20262;-61
2022/08/12 12:24:21;;;;;;;0.85;0.85;;;;;;;;;;5090943;28;20214;-61
2022/08/12 12:27:08;;;;;;;0.98;0.98;;;;;;;;;;5098622;28;20201;-61
2022/08/12 12:29:56;;;;;;;0.80;0.80;;;;;;;;;;5094864;28;20224;-61
2022/08/12 12:32:44;;;;;;;0.90;0.90;;;;;;;;;;5100239;28;20202;-61
2022/08/12 12:35:31;;;;;;;0.98;0.98;;;;;;;;;;5100909;28;20233;-62
2022/08/12 12:38:19;;;;;;;0.88;0.88;;;;;;;;;;5098940;28;20190;-61
2022/08/12 12:41:07;;;;;;;0.85;0.85;;;;;;;;;;5102913;28;20198;-61
2022/08/12 12:43:54;;;;;;;0.90;0.90;;;;;;;;;;5098806;28;20285;-61
2022/08/12 12:46:41;;;;;;;1.10;1.10;;;;;;;;;;5092176;28;20224;-62
2022/08/12 12:49:28;;;;;;;1.33;0.90;;;;;;;;;;5101250;28;20721;-61
2022/08/12 12:52:16;;;;;;;1.00;1.00;;;;;;;;;;5095393;28;20205;-62
2022/08/12 12:55:04;;;;;;;1.20;1.10;;;;;;;;;;5099010;28;20555;-61
2022/08/12 12:57:52;;;;;;;1.38;1.27;;;;;;;;;;5099931;28;20278;-61
2022/08/12 13:00:43;;;;;;;0.90;0.90;;;;;;;;;;5093078;28;20217;-61
2022/08/12 13:03:34;;;;;;;1.00;1.00;;;;;;;;;;5099330;28;20203;-61
2022/08/12 13:06:24;;;;;;;1.10;1.10;;;;;;;;;;5099734;28;20233;-62
2022/08/12 13:09:12;;;;;;;0.80;0.80;;;;;;;;;;5100334;28;20298;-61
2022/08/12 13:11:59;;;;;;;1.10;1.10;;;;;;;;;;5102228;28;20331;-61
2022/08/12 13:14:48;;;;;;;1.02;1.02;;;;;;;;;;5105314;28;20206;-61
2022/08/12 13:17:35;;;;;;;1.23;1.23;;;;;;;;;;5101518;28;20635;-62
2022/08/12 13:20:23;;;;;;;1.00;1.00;;;;;;;;;;5104460;28;20339;-62
2022/08/12 13:23:13;;;;;;;1.20;1.20;;;;;;;;;;5103221;28;20685;-62
2022/08/12 13:26:00;;;;;;;0.90;0.90;;;;;;;;;;5101555;28;20206;-61
2022/08/12 13:28:49;;;;;;;0.90;0.90;;;;;;;;;;5101477;28;20205;-61
2022/08/12 13:31:37;;;;;;;0.88;0.88;;;;;;;;;;5101427;28;20205;-61
2022/08/12 13:34:24;;;;;;;1.20;1.20;;;;;;;;;;5100248;28;20213;-62
2022/08/12 13:37:12;;;;;;;1.20;1.20;;;;;;;;;;5106099;28;20214;-62
2022/08/12 13:39:59;;;;;;;1.25;1.25;;;;;;;;;;5097482;28;20277;-62
2022/08/12 13:42:47;;;;;;;0.93;0.93;;;;;;;;;;5097808;28;20660;-62
2022/08/12 13:45:35;;;;;;;1.33;1.20;;;;;;;;;;5096135;28;20220;-62
2022/08/12 13:48:23;;;;;;;1.20;1.10;;;;;;;;;;5096562;28;20659;-62
2022/08/12 13:51:10;;;;;;;1.00;1.00;;;;;;;;;;5097680;28;20209;-62
2022/08/12 13:53:57;;;;;;;1.30;1.30;;;;;;;;;;5101479;28;20260;-62
2022/08/12 13:56:44;;;;;;;1.35;1.30;;;;;;;;;;5100850;28;20233;-62
2022/08/12 13:59:32;;;;;;;1.20;1.20;;;;;;;;;;5098331;28;20202;-62
2022/08/12 14:02:19;;;;;;;1.20;1.20;;;;;;;;;;5099118;28;20294;-62
2022/08/12 14:05:08;;;;;;;0.98;0.98;;;;;;;;;;5096012;28;20366;-62
2022/08/12 14:07:57;;;;;;;1.20;1.20;;;;;;;;;;5099781;28;20551;-62
2022/08/12 14:10:48;;;;;;;1.10;1.10;;;;;;;;;;5092576;28;20342;-62
2022/08/12 14:13:38;;;;;;;1.15;1.15;;;;;;;;;;5099720;28;20248;-62
2022/08/12 14:16:26;;;;;;;1.38;1.20;;;;;;;;;;5100660;28;20764;-62
2022/08/12 14:19:13;;;;;;;1.30;1.20;;;;;;;;;;5093511;28;20213;-63
2022/08/12 14:22:03;;;;;;;1.15;1.15;;;;;;;;;;5099218;28;20676;-63
2022/08/12 14:24:51;;;;;;;1.00;1.00;;;;;;;;;;5097061;28;21032;-62
2022/08/12 14:27:38;;;;;;;1.00;1.00;;;;;;;;;;5095606;28;20659;-62
2022/08/12 14:30:26;;;;;;;1.02;1.02;;;;;;;;;;5095869;28;20596;-62
2022/08/12 14:33:14;;;;;;;1.10;1.10;;;;;;;;;;5095332;28;20215;-62
2022/08/12 14:36:02;;;;;;;1.10;1.10;;;;;;;;;;5107824;28;20261;-62
2022/08/12 14:38:52;;;;;;;1.02;1.02;;;;;;;;;;5105838;28;20547;-62
2022/08/12 14:41:41;;;;;;;0.98;0.98;;;;;;;;;;5104802;28;20213;-62
2022/08/12 14:44:27;;;;;;;1.00;1.00;;;;;;;;;;5105557;28;20202;-63
2022/08/12 14:47:14;;;;;;;1.20;1.20;;;;;;;;;;5107478;28;20206;-63
2022/08/12 14:50:01;;;;;;;1.10;1.10;;;;;;;;;;5101780;28;20210;-62
2022/08/12 14:52:49;;;;;;;1.10;1.10;;;;;;;;;;5100753;28;20210;-62
2022/08/12 14:55:40;;;;;;;1.20;1.17;;;;;;;;;;5100642;28;20209;-62
2022/08/12 14:58:28;;;;;;;1.10;1.10;;;;;;;;;;5103205;28;20202;-62
2022/08/12 15:04:27;;;;;;;1.17;1.10;;;;;;;;;;5101725;28;20740;-62
2022/08/12 15:07:14;;;;;;;1.10;1.10;;;;;;;;;;5099944;28;20202;-63
2022/08/12 15:10:01;;;;;;;1.30;1.30;;;;;;;;;;5106815;28;20246;-63
2022/08/12 15:12:49;;;;;;;1.00;1.00;;;;;;;;;;5103811;28;20680;-62
2022/08/12 15:15:40;;;;;;;0.90;0.90;;;;;;;;;;5102412;28;20209;-63
2022/08/12 15:18:28;;;;;;;1.02;1.00;;;;;;;;;;5100225;27;20591;-63
2022/08/12 15:21:15;;;;;;;1.20;1.20;;;;;;;;;;5103633;28;20206;-62
2022/08/12 15:24:03;;;;;;;0.98;0.98;;;;;;;;;;5105794;28;20206;-63
2022/08/12 15:26:50;;;;;;;1.02;1.02;;;;;;;;;;5098113;28;20246;-63
2022/08/12 15:29:39;;;;;;;1.10;1.10;;;;;;;;;;5100873;28;20216;-63
2022/08/12 15:32:26;;;;;;;1.00;1.00;;;;;;;;;;5100147;28;20230;-63
2022/08/12 15:35:13;;;;;;;1.30;1.30;;;;;;;;;;5103716;28;20242;-63
2022/08/12 15:38:03;;;;;;;1.20;1.20;;;;;;;;;;5102914;28;20225;-63
2022/08/12 15:40:51;;;;;;;1.35;1.35;;;;;;;;;;5097964;28;20233;-63
2022/08/12 15:43:38;;;;;;;1.45;1.45;;;;;;;;;;5097374;28;20207;-63
2022/08/12 15:46:31;;;;;;;1.17;1.17;;;;;;;;;;5095215;28;20680;-63
2022/08/12 15:49:18;;;;;;;1.10;1.10;;;;;;;;;;5095802;28;20336;-63
2022/08/12 15:52:05;;;;;;;1.20;1.20;;;;;;;;;;5095784;28;20251;-63
2022/08/12 15:54:52;;;;;;;1.33;1.30;;;;;;;;;;5099711;28;20214;-64
2022/08/12 15:57:47;;;;;;;1.02;1.02;;;;;;;;;;5101328;28;20622;-63
2022/08/12 16:00:36;;;;;;;2.05;1.13;;;;;;;;;;5100519;28;20218;-63
2022/08/12 16:03:32;;;;;;;1.08;1.08;;;;;;;;;;5102174;28;20582;-63
2022/08/12 16:06:19;;;;;;;1.38;1.38;;;;;;;;;;5091006;28;20264;-63
2022/08/12 16:09:06;;;;;;;1.33;1.23;;;;;;;;;;5097073;28;20237;-62
2022/08/12 16:11:53;;;;;;;1.10;1.10;;;;;;;;;;5104615;28;20238;-63
2022/08/12 16:14:40;;;;;;;1.15;1.13;;;;;;;;;;5104992;28;20209;-62
2022/08/12 16:17:28;;;;;;;1.17;1.17;;;;;;;;;;5101116;27;20286;-63
2022/08/12 16:20:20;;;;;;;1.00;1.00;;;;;;;;;;5098399;28;20206;-63
2022/08/12 16:23:10;;;;;;;0.93;0.93;;;;;;;;;;5095248;28;20206;-63
2022/08/12 16:26:01;;;;;;;1.30;1.30;;;;;;;;;;5101631;28;20351;-62
2022/08/12 16:28:48;;;;;;;1.13;1.13;;;;;;;;;;5096017;28;20254;-63
2022/08/12 16:31:39;;;;;;;1.08;1.08;;;;;;;;;;5099037;28;20210;-63
2022/08/12 16:34:26;;;;;;;1.23;1.23;;;;;;;;;;5096956;28;20199;-63
2022/08/12 16:37:15;;;;;;;1.17;1.17;;;;;;;;;;5098668;28;20218;-63
2022/08/12 16:40:03;;;;;;;1.15;1.15;;;;;;;;;;5099822;28;20205;-63
2022/08/12 16:42:50;;;;;;;1.40;1.35;;;;;;;;;;5102693;28;20324;-62
2022/08/12 16:45:38;;;;;;;1.35;1.27;;;;;;;;;;5098330;28;20673;-62
2022/08/12 16:48:26;;;;;;;1.33;1.23;;;;;;;;;;5103286;28;20201;-63
2022/08/12 16:51:13;;;;;;;1.08;1.08;;;;;;;;;;5095438;28;20225;-63
2022/08/12 16:54:02;;;;;;;1.30;1.30;;;;;;;;;;5096754;28;20209;-63
2022/08/12 16:56:53;;;;;;;1.33;1.33;;;;;;;;;;5098333;28;20240;-63
2022/08/12 16:59:40;;;;;;;1.20;1.20;;;;;;;;;;5100661;28;20604;-62
2022/08/12 17:02:28;;;;;;;0.90;0.90;;;;;;;;;;5102505;28;20209;-63
2022/08/12 17:05:16;;;;;;;1.20;1.20;;;;;;;;;;5098575;28;20221;-63
2022/08/12 17:08:06;;;;;;;0.80;0.80;;;;;;;;;;5106215;28;20209;-62
2022/08/12 17:10:54;;;;;;;1.20;1.20;;;;;;;;;;5103595;28;20681;-63
2022/08/12 17:13:41;;;;;;;1.27;1.27;;;;;;;;;;5096209;28;20235;-62
2022/08/12 17:16:28;;;;;;;1.20;1.20;;;;;;;;;;5095628;28;20205;-63
2022/08/12 17:19:16;;;;;;;1.02;1.02;;;;;;;;;;5100891;28;20198;-63
2022/08/12 17:22:06;;;;;;;1.42;1.17;;;;;;;;;;5098193;28;20210;-63
2022/08/12 17:24:56;;;;;;;1.20;1.20;;;;;;;;;;5100688;28;20200;-63
2022/08/12 17:27:46;;;;;;;1.35;1.20;;;;;;;;;;5097305;28;20215;-63
2022/08/12 17:30:34;;;;;;;1.20;1.20;;;;;;;;;;5101128;28;20207;-62
2022/08/12 17:33:21;;;;;;;1.45;1.45;;;;;;;;;;5095804;28;20283;-63
2022/08/12 17:36:08;;;;;;;1.20;1.20;;;;;;;;;;5099580;28;20294;-63
2022/08/12 17:38:55;;;;;;;1.17;1.17;;;;;;;;;;5098362;28;20612;-63
2022/08/12 17:41:42;;;;;;;1.30;1.30;;;;;;;;;;5096967;28;20664;-63
2022/08/12 17:44:30;;;;;;;1.10;1.10;;;;;;;;;;5098207;28;20600;-63
2022/08/12 17:47:17;;;;;;;1.10;1.10;;;;;;;;;;5099399;28;20206;-64
2022/08/12 17:50:07;;;;;;;1.40;1.40;;;;;;;;;;5097747;28;21087;-63
2022/08/12 17:52:57;;;;;;;1.25;1.20;;;;;;;;;;5098620;28;20301;-63
2022/08/12 17:55:45;;;;;;;1.23;1.23;;;;;;;;;;5102173;28;20590;-63
2022/08/12 17:58:34;;;;;;;1.30;1.30;;;;;;;;;;5095093;28;20287;-63
2022/08/12 18:01:23;;;;;;;3.63;1.55;;;;;;;;;;5101118;28;20206;-63
2022/08/12 18:04:10;;;;;;;1.30;1.23;;;;;;;;;;5108212;28;20200;-63
2022/08/12 18:06:57;;;;;;;1.17;1.17;;;;;;;;;;5096937;28;20280;-63
2022/08/12 18:09:45;;;;;;;1.42;1.42;;;;;;;;;;5097108;28;20237;-63
2022/08/12 18:12:43;;;;;;;1.20;1.20;;;;;;;;;;5106147;28;20264;-63
2022/08/12 18:15:33;;;;;;;1.58;1.48;;;;;;;;;;5105831;28;20660;-63
2022/08/12 18:18:21;;;;;;;1.00;1.00;;;;;;;;;;5109013;28;20307;-62
2022/08/12 18:21:09;;;;;;;1.33;1.33;;;;;;;;;;5105088;28;20597;-63
2022/08/12 18:23:58;;;;;;;1.20;1.20;;;;;;;;;;5109860;28;20200;-63
2022/08/12 18:26:46;;;;;;;1.10;1.10;;;;;;;;;;5108293;28;20541;-62
2022/08/12 18:29:34;;;;;;;1.50;1.40;;;;;;;;;;5105982;28;20200;-62
2022/08/12 18:32:22;;;;;;;1.70;1.60;;;;;;;;;;5106117;28;20226;-63
2022/08/12 18:35:11;;;;;;;1.30;1.30;;;;;;;;;;5102657;28;20735;-63
2022/08/12 18:38:02;;;;;;;1.50;1.50;;;;;;;;;;5103612;28;20229;-63
2022/08/12 18:44:01;;;;;;;1.20;1.20;;;;;;;;;;5096961;28;20240;-63
2022/08/12 18:46:49;;;;;;;1.30;1.30;;;;;;;;;;5103804;28;20209;-63